Time;durP1;ratioP1;P1;durP2;ratioP2;P2;SDS_P1;SDS_P2;PMS_P1;PMS_P2;Temp;Humidity;BMP_temperature;BMP_pressure;BME280_temperature;BME280_humidity;BME280_pressure;Samples;Min_cycle;Max_cycle;Signal;HPM_P1;HPM_P2
2022/11/27 00:01:58;;;;;;;29.33;11.10;;;7.80;99.90;;;;;;5137610;27;20035;-70
2022/11/27 00:04:23;;;;;;;26.30;11.25;;;7.80;99.90;;;;;;5119681;27;20039;-69
2022/11/27 00:06:49;;;;;;;29.40;9.35;;;7.80;99.90;;;;;;5119830;27;20035;-69
2022/11/27 00:09:15;;;;;;;30.15;11.30;;;7.70;99.90;;;;;;5119969;27;20027;-69
2022/11/27 00:11:42;;;;;;;25.35;11.45;;;7.80;99.90;;;;;;5119083;27;20045;-69
2022/11/27 00:14:14;;;;;;;23.20;11.10;;;7.80;99.90;;;;;;5137560;27;20400;-69
2022/11/27 00:16:40;;;;;;;29.08;9.35;;;7.80;99.90;;;;;;5137541;27;20035;-69
2022/11/27 00:19:06;;;;;;;27.08;11.02;;;7.80;99.90;;;;;;5119380;27;20084;-69
2022/11/27 00:21:33;;;;;;;24.48;10.07;;;7.80;99.90;;;;;;5137828;27;20043;-69
2022/11/27 00:24:03;;;;;;;26.08;9.85;;;7.80;99.90;;;;;;5102380;27;20070;-69
2022/11/27 00:26:30;;;;;;;24.02;10.68;;;7.70;99.90;;;;;;5119346;28;20088;-69
2022/11/27 00:28:56;;;;;;;29.80;10.30;;;7.60;99.90;;;;;;5137533;28;20031;-70
2022/11/27 00:31:28;;;;;;;22.27;9.82;;;7.60;99.90;;;;;;5119268;28;20035;-69
2022/11/27 00:34:04;;;;;;;20.67;10.05;;;7.70;99.90;;;;;;5119341;28;20042;-69
2022/11/27 00:36:31;;;;;;;;;;;7.70;99.90;;;;;;5119717;28;20042;-69
2022/11/27 00:38:57;;;;;;;25.08;9.80;;;7.60;99.90;;;;;;5119288;28;19915;-69
2022/11/27 00:41:25;;;;;;;24.48;9.82;;;7.60;99.90;;;;;;5137062;28;20057;-69
2022/11/27 00:43:52;;;;;;;26.02;10.10;;;7.60;99.90;;;;;;5137545;28;20039;-70
2022/11/27 00:46:24;;;;;;;20.83;9.50;;;7.60;99.90;;;;;;5137408;28;20035;-70
2022/11/27 00:48:50;;;;;;;19.55;9.80;;;7.60;99.90;;;;;;5123169;27;20439;-70
2022/11/27 00:51:18;;;;;;;22.05;9.43;;;7.60;99.90;;;;;;5123335;27;20064;-69
2022/11/27 00:53:44;;;;;;;25.05;9.73;;;7.60;99.90;;;;;;5141201;27;20038;-69
2022/11/27 00:56:22;;;;;;;26.85;9.73;;;7.60;99.90;;;;;;5141295;27;20117;-70
2022/11/27 00:58:49;;;;;;;20.90;9.38;;;7.60;99.90;;;;;;5141204;27;20408;-69
2022/11/27 01:01:20;;;;;;;21.77;9.90;;;7.50;99.90;;;;;;5123033;27;20043;-69
2022/11/27 01:03:46;;;;;;;22.65;9.38;;;7.40;99.90;;;;;;5141357;27;20038;-69
2022/11/27 01:06:12;;;;;;;25.35;9.52;;;7.50;99.90;;;;;;5141337;27;20070;-69
2022/11/27 01:08:38;;;;;;;19.23;9.18;;;7.40;99.90;;;;;;5140879;27;20035;-69
2022/11/27 01:11:04;;;;;;;21.27;9.13;;;7.40;99.90;;;;;;5140806;27;20027;-69
2022/11/27 01:13:33;;;;;;;18.75;9.52;;;7.40;99.90;;;;;;5141220;27;20408;-69
2022/11/27 01:16:00;;;;;;;32.88;11.20;;;7.40;99.90;;;;;;5141254;27;20035;-69
2022/11/27 01:18:26;;;;;;;20.48;9.95;;;7.40;99.90;;;;;;5123163;27;20442;-69
2022/11/27 01:20:52;;;;;;;23.48;10.82;;;7.40;99.90;;;;;;5141052;27;20114;-69
2022/11/27 01:23:18;;;;;;;28.50;10.43;;;7.30;99.90;;;;;;5141039;27;20035;-69
2022/11/27 01:25:44;;;;;;;25.88;11.43;;;7.30;99.90;;;;;;5140896;27;20085;-70
2022/11/27 01:28:09;;;;;;;22.45;9.80;;;7.30;99.90;;;;;;5140958;27;20420;-69
2022/11/27 01:30:38;;;;;;;23.73;10.65;;;7.30;99.90;;;;;;5122746;27;20394;-69
2022/11/27 01:33:04;;;;;;;18.35;10.23;;;7.30;99.90;;;;;;5122511;27;20320;-69
2022/11/27 01:35:30;;;;;;;26.08;9.95;;;7.30;99.90;;;;;;5122863;27;20407;-69
2022/11/27 01:37:55;;;;;;;20.58;9.32;;;7.30;99.90;;;;;;5140639;27;20031;-69
2022/11/27 01:40:22;;;;;;;22.92;9.38;;;7.30;99.90;;;;;;5122276;27;20046;-69
2022/11/27 01:42:47;;;;;;;27.65;9.50;;;7.30;99.90;;;;;;5140658;27;20061;-69
2022/11/27 01:45:16;;;;;;;27.55;10.23;;;7.30;99.90;;;;;;5140704;27;20412;-69
2022/11/27 01:47:59;;;;;;;18.13;9.65;;;7.30;99.90;;;;;;5122372;27;20173;-69
2022/11/27 01:50:30;;;;;;;28.10;10.13;;;7.30;99.90;;;;;;5140410;27;20027;-69
2022/11/27 01:53:05;;;;;;;28.02;10.10;;;7.40;99.90;;;;;;5140647;27;20027;-69
2022/11/27 01:55:46;;;;;;;20.92;8.73;;;7.40;99.90;;;;;;5140250;27;20416;-69
2022/11/27 01:58:23;;;;;;;19.08;8.80;;;7.30;99.90;;;;;;5122146;27;20031;-69
2022/11/27 02:00:50;;;;;;;19.08;9.38;;;7.30;99.90;;;;;;5140051;27;20404;-69
2022/11/27 02:03:16;;;;;;;22.75;8.65;;;7.20;99.90;;;;;;5140419;27;20039;-69
2022/11/27 02:05:42;;;;;;;22.40;9.20;;;7.20;99.90;;;;;;5139924;27;20176;-69
2022/11/27 02:08:11;;;;;;;17.13;8.90;;;7.10;99.90;;;;;;5140026;27;20042;-69
2022/11/27 02:10:57;;;;;;;23.65;10.10;;;7.20;99.90;;;;;;5139572;27;20042;-69
2022/11/27 02:13:57;;;;;;;22.30;9.52;;;7.30;99.90;;;;;;5139940;27;20125;-69
2022/11/27 02:16:44;;;;;;;23.65;8.95;;;7.20;99.90;;;;;;5140193;27;20090;-70
2022/11/27 02:19:25;;;;;;;;;;;7.20;99.90;;;;;;5140357;27;20498;-69
2022/11/27 02:22:11;;;;;;;22.48;9.05;;;7.40;99.90;;;;;;5140043;27;19925;-69
2022/11/27 02:24:54;;;;;;;22.80;8.80;;;7.40;99.90;;;;;;5097416;27;20125;-69
2022/11/27 02:27:51;;;;;;;27.23;8.98;;;7.30;99.90;;;;;;5139821;27;20062;-69
2022/11/27 02:30:16;;;;;;;23.58;8.98;;;7.30;99.90;;;;;;5139965;27;20491;-69
2022/11/27 02:32:51;;;;;;;19.55;8.52;;;7.10;99.90;;;;;;5121334;27;20043;-69
2022/11/27 02:35:40;;;;;;;22.00;8.20;;;7.10;99.90;;;;;;5139345;27;20122;-69
2022/11/27 02:38:12;;;;;;;33.85;8.68;;;7.10;99.90;;;;;;5138996;27;20051;-69
2022/11/27 02:40:45;;;;;;;20.20;8.45;;;7.20;99.90;;;;;;5138890;27;20039;-69
2022/11/27 02:43:15;;;;;;;17.00;8.25;;;7.20;99.90;;;;;;5139657;27;20035;-69
2022/11/27 02:45:45;;;;;;;16.95;8.73;;;7.20;99.90;;;;;;5139358;27;20034;-69
2022/11/27 02:48:14;;;;;;;20.83;9.25;;;7.30;99.90;;;;;;5139399;27;20080;-69
2022/11/27 02:50:42;;;;;;;17.08;8.25;;;7.20;99.90;;;;;;5139465;27;20038;-69
2022/11/27 02:53:16;;;;;;;18.83;8.50;;;7.30;99.90;;;;;;5139184;27;20031;-69
2022/11/27 02:55:43;;;;;;;24.58;8.70;;;7.30;99.90;;;;;;5139397;27;20313;-69
2022/11/27 02:58:14;;;;;;;21.90;9.25;;;7.30;99.90;;;;;;5139023;27;20430;-70
2022/11/27 03:00:42;;;;;;;20.45;8.77;;;7.30;99.90;;;;;;5139204;27;20035;-69
2022/11/27 03:03:11;;;;;;;19.05;8.38;;;7.20;99.90;;;;;;5139359;27;20066;-69
2022/11/27 03:05:41;;;;;;;21.45;8.68;;;7.40;99.90;;;;;;5138712;27;20089;-69
2022/11/27 03:08:16;;;;;;;19.60;8.45;;;7.40;99.90;;;;;;5139111;27;20035;-69
2022/11/27 03:10:57;;;;;;;26.67;9.60;;;7.50;99.90;;;;;;5119217;27;20081;-73
2022/11/27 03:13:24;;;;;;;20.45;8.20;;;7.40;99.90;;;;;;5138561;27;20035;-69
2022/11/27 03:16:04;;;;;;;20.23;8.27;;;7.50;99.90;;;;;;5138337;27;20043;-69
2022/11/27 03:18:40;;;;;;;20.20;8.32;;;7.40;99.90;;;;;;5139463;27;20081;-70
2022/11/27 03:21:18;;;;;;;17.25;8.38;;;7.50;99.90;;;;;;5138602;27;20116;-69
2022/11/27 03:23:43;;;;;;;28.77;9.75;;;7.50;99.90;;;;;;5138375;27;20047;-69
2022/11/27 03:26:09;;;;;;;18.95;7.70;;;7.50;99.90;;;;;;5138236;27;20042;-69
2022/11/27 03:28:35;;;;;;;18.92;8.65;;;7.30;99.90;;;;;;5138381;27;20118;-69
2022/11/27 03:31:01;;;;;;;20.77;9.20;;;7.40;99.90;;;;;;5138625;27;20047;-69
2022/11/27 03:33:27;;;;;;;16.52;8.73;;;7.50;99.90;;;;;;5119956;27;20055;-69
2022/11/27 03:35:53;;;;;;;20.65;9.32;;;7.60;99.90;;;;;;5138351;27;20047;-70
2022/11/27 03:38:19;;;;;;;18.38;8.75;;;7.60;99.90;;;;;;5138518;27;20466;-69
2022/11/27 03:41:00;;;;;;;20.20;8.75;;;7.60;99.90;;;;;;5119733;27;20392;-69
2022/11/27 03:43:34;;;;;;;21.55;8.40;;;7.50;99.90;;;;;;5138401;27;20050;-69
2022/11/27 03:46:08;;;;;;;17.90;9.00;;;7.40;99.90;;;;;;5138084;27;20047;-69
2022/11/27 03:48:54;;;;;;;22.05;8.70;;;7.30;99.90;;;;;;5138268;27;20324;-69
2022/11/27 03:52:06;;;;;;;18.23;8.73;;;7.30;99.90;;;;;;5138050;27;20043;-69
2022/11/27 03:55:05;;;;;;;23.40;9.48;;;7.40;99.90;;;;;;5106202;27;20043;-69
2022/11/27 03:58:07;;;;;;;22.40;9.15;;;7.40;99.90;;;;;;5137988;27;20415;-70
2022/11/27 04:00:37;;;;;;;19.40;8.32;;;7.50;99.90;;;;;;5137817;27;20046;-69
2022/11/27 04:03:03;;;;;;;18.95;8.32;;;7.50;99.90;;;;;;5137995;27;20110;-69
2022/11/27 04:05:29;;;;;;;20.55;8.82;;;7.50;99.90;;;;;;5119626;27;20038;-69
2022/11/27 04:07:55;;;;;;;17.10;8.90;;;7.50;99.90;;;;;;5119952;27;20450;-69
2022/11/27 04:10:21;;;;;;;16.95;8.10;;;7.40;99.90;;;;;;5137193;27;20039;-70
2022/11/27 04:12:46;;;;;;;18.35;8.02;;;7.50;99.90;;;;;;5137614;27;20492;-70
2022/11/27 04:15:12;;;;;;;19.63;8.50;;;7.40;99.90;;;;;;5119876;27;20042;-69
2022/11/27 04:17:38;;;;;;;14.23;8.20;;;7.40;99.90;;;;;;5137718;27;20095;-69
2022/11/27 04:20:05;;;;;;;22.55;9.25;;;7.40;99.90;;;;;;5138036;27;20035;-69
2022/11/27 04:22:31;;;;;;;18.50;7.93;;;7.40;99.90;;;;;;5137115;27;20305;-69
2022/11/27 04:24:56;;;;;;;21.38;8.48;;;7.40;99.90;;;;;;5137319;27;20088;-69
2022/11/27 04:27:22;;;;;;;21.33;8.32;;;7.40;99.90;;;;;;5137650;27;20039;-69
2022/11/27 04:29:48;;;;;;;21.20;8.45;;;7.50;99.90;;;;;;5137665;28;20400;-69
2022/11/27 04:32:13;;;;;;;22.10;8.98;;;7.40;99.90;;;;;;5102087;28;20051;-69
2022/11/27 04:34:39;;;;;;;18.13;8.70;;;7.50;99.90;;;;;;5119347;28;20046;-69
2022/11/27 04:37:05;;;;;;;19.08;8.07;;;7.50;99.90;;;;;;5137452;28;20041;-69
2022/11/27 04:39:30;;;;;;;21.30;8.52;;;7.30;99.90;;;;;;5137193;28;20114;-69
2022/11/27 04:41:56;;;;;;;20.73;8.65;;;7.30;99.90;;;;;;5137243;28;20054;-69
2022/11/27 04:44:22;;;;;;;18.33;8.27;;;7.40;99.90;;;;;;5137347;28;20047;-69
2022/11/27 04:46:48;;;;;;;18.80;8.70;;;7.40;99.90;;;;;;5119356;28;20039;-69
2022/11/27 04:49:14;;;;;;;20.48;8.50;;;7.40;99.90;;;;;;5137215;28;20031;-69
2022/11/27 04:51:39;;;;;;;17.00;8.52;;;7.40;99.90;;;;;;5137194;28;20038;-69
2022/11/27 04:54:05;;;;;;;13.55;8.35;;;7.30;99.90;;;;;;5137225;28;20124;-69
2022/11/27 04:56:31;;;;;;;17.13;8.70;;;7.30;99.90;;;;;;5119237;28;20040;-69
2022/11/27 04:58:57;;;;;;;14.15;8.30;;;7.40;99.90;;;;;;5137430;28;20037;-69
2022/11/27 05:01:23;;;;;;;20.25;9.13;;;7.40;99.90;;;;;;5137263;28;20046;-69
2022/11/27 05:03:49;;;;;;;14.52;8.27;;;7.30;99.90;;;;;;5137364;28;20035;-69
2022/11/27 05:06:15;;;;;;;20.73;7.60;;;7.20;99.90;;;;;;5137198;28;20065;-69
2022/11/27 05:08:41;;;;;;;16.90;8.15;;;7.20;99.90;;;;;;5137308;28;20049;-69
2022/11/27 05:11:12;;;;;;;17.60;7.80;;;7.20;99.90;;;;;;5129272;27;20039;-71
2022/11/27 05:13:38;;;;;;;14.70;7.65;;;7.10;99.90;;;;;;5136742;28;20110;-70
2022/11/27 05:16:04;;;;;;;20.77;8.18;;;7.20;99.90;;;;;;5137365;28;20042;-70
2022/11/27 05:18:30;;;;;;;15.88;7.38;;;7.20;99.90;;;;;;5137119;28;20051;-70
2022/11/27 05:20:58;;;;;;;16.67;7.93;;;7.20;99.90;;;;;;5137231;28;20054;-69
2022/11/27 05:23:24;;;;;;;15.10;7.60;;;7.20;99.90;;;;;;5136910;28;20104;-70
2022/11/27 05:25:50;;;;;;;16.23;7.60;;;7.20;99.90;;;;;;5119099;28;20079;-69
2022/11/27 05:28:15;;;;;;;20.38;7.38;;;7.20;99.90;;;;;;5137121;28;20475;-69
2022/11/27 05:30:41;;;;;;;14.73;7.47;;;7.20;99.90;;;;;;5137066;28;20312;-69
2022/11/27 05:33:07;;;;;;;16.40;7.35;;;7.20;99.90;;;;;;5118798;27;20065;-69
2022/11/27 05:35:32;;;;;;;20.35;8.55;;;7.20;99.90;;;;;;5122119;27;20050;-71
2022/11/27 05:37:58;;;;;;;19.88;7.70;;;7.30;99.90;;;;;;5140741;27;20043;-69
2022/11/27 05:40:24;;;;;;;16.55;7.43;;;7.30;99.90;;;;;;5140865;27;20112;-69
2022/11/27 05:42:49;;;;;;;17.35;7.05;;;7.30;99.90;;;;;;5122064;27;20050;-69
2022/11/27 05:45:15;;;;;;;15.75;7.47;;;7.30;99.90;;;;;;5122665;27;20092;-69
2022/11/27 05:47:41;;;;;;;15.85;6.70;;;7.30;99.90;;;;;;5140495;27;20039;-69
2022/11/27 05:50:07;;;;;;;18.40;7.18;;;7.20;99.90;;;;;;5140509;27;20039;-69
2022/11/27 05:52:32;;;;;;;15.75;6.00;;;7.30;99.90;;;;;;5140208;27;20030;-70
2022/11/27 05:54:58;;;;;;;17.13;6.40;;;7.20;99.90;;;;;;5140182;27;20069;-69
2022/11/27 05:57:24;;;;;;;15.73;6.70;;;7.30;99.90;;;;;;5140487;27;20134;-69
2022/11/27 05:59:49;;;;;;;17.25;7.10;;;7.20;99.90;;;;;;5140166;27;20035;-69
2022/11/27 06:02:15;;;;;;;15.13;6.85;;;7.10;99.90;;;;;;5122158;27;20419;-72
2022/11/27 06:04:41;;;;;;;17.02;6.75;;;7.10;99.90;;;;;;5140181;27;20042;-69
2022/11/27 06:07:06;;;;;;;13.50;6.57;;;6.90;99.90;;;;;;5139960;27;20324;-69
2022/11/27 06:09:32;;;;;;;16.17;7.10;;;6.90;99.90;;;;;;5140230;27;20039;-69
2022/11/27 06:11:58;;;;;;;14.52;6.72;;;7.00;99.90;;;;;;5139641;27;20042;-69
2022/11/27 06:14:23;;;;;;;13.55;5.97;;;7.00;99.90;;;;;;5140074;27;20049;-69
2022/11/27 06:16:49;;;;;;;18.33;6.07;;;7.00;99.90;;;;;;5139685;27;20084;-70
2022/11/27 06:19:15;;;;;;;21.13;6.57;;;7.10;99.90;;;;;;5104655;27;20043;-69
2022/11/27 06:21:40;;;;;;;15.90;6.35;;;7.20;99.90;;;;;;5121778;27;20393;-69
2022/11/27 06:24:06;;;;;;;16.00;6.53;;;7.10;99.90;;;;;;5121661;27;20057;-69
2022/11/27 06:26:33;;;;;;;11.52;6.28;;;7.10;99.90;;;;;;5139757;27;20031;-69
2022/11/27 06:29:00;;;;;;;14.55;6.05;;;7.00;99.90;;;;;;5121463;27;20085;-69
2022/11/27 06:31:28;;;;;;;13.70;6.10;;;7.00;99.90;;;;;;5139579;27;20031;-69
2022/11/27 06:33:55;;;;;;;13.63;5.88;;;6.90;99.90;;;;;;5139510;27;20155;-69
2022/11/27 06:36:22;;;;;;;13.48;5.82;;;7.00;99.90;;;;;;5121301;27;20043;-69
2022/11/27 06:38:48;;;;;;;14.90;5.88;;;7.10;99.90;;;;;;5139493;27;20046;-70
2022/11/27 06:41:19;;;;;;;13.25;5.50;;;7.10;99.90;;;;;;5139172;27;20039;-69
2022/11/27 06:43:45;;;;;;;12.73;6.28;;;7.20;99.90;;;;;;5139285;27;20087;-69
2022/11/27 06:46:14;;;;;;;15.20;5.68;;;7.10;99.90;;;;;;5139204;27;20051;-69
2022/11/27 06:48:41;;;;;;;17.80;5.97;;;7.20;99.90;;;;;;5139082;27;20042;-70
2022/11/27 06:51:10;;;;;;;10.45;5.88;;;7.20;99.90;;;;;;5139295;27;20039;-69
2022/11/27 06:53:36;;;;;;;15.20;6.53;;;7.10;99.90;;;;;;5120935;27;20046;-69
2022/11/27 06:56:08;;;;;;;17.05;5.93;;;7.00;99.90;;;;;;5139222;27;20127;-70
2022/11/27 06:58:35;;;;;;;12.32;5.60;;;7.10;99.90;;;;;;5139065;27;20039;-70
2022/11/27 07:01:03;;;;;;;13.05;6.30;;;7.20;99.90;;;;;;5138896;27;20035;-69
2022/11/27 07:03:29;;;;;;;9.35;5.40;;;7.20;99.90;;;;;;5138905;27;20467;-69
2022/11/27 07:05:58;;;;;;;9.40;5.78;;;7.20;99.90;;;;;;5139067;27;20035;-69
2022/11/27 07:08:23;;;;;;;13.80;6.05;;;7.20;99.90;;;;;;5138749;27;20039;-69
2022/11/27 07:10:49;;;;;;;14.68;6.50;;;7.30;99.90;;;;;;5138541;27;20039;-69
2022/11/27 07:13:15;;;;;;;12.35;5.75;;;7.50;99.90;;;;;;5138871;27;20039;-69
2022/11/27 07:15:41;;;;;;;15.07;7.00;;;7.30;99.90;;;;;;5138651;27;20418;-69
2022/11/27 07:18:06;;;;;;;12.70;6.20;;;7.30;99.90;;;;;;5120545;27;20043;-69
2022/11/27 07:20:32;;;;;;;13.75;6.15;;;7.20;99.90;;;;;;5138780;27;20039;-70
2022/11/27 07:22:58;;;;;;;16.50;5.65;;;7.10;99.90;;;;;;5138529;27;20036;-69
2022/11/27 07:25:23;;;;;;;16.65;5.78;;;7.10;99.90;;;;;;5138524;27;20039;-69
2022/11/27 07:27:49;;;;;;;11.52;6.10;;;7.00;99.90;;;;;;5120495;27;20085;-69
2022/11/27 07:30:15;;;;;;;14.05;6.35;;;7.10;99.90;;;;;;5148502;27;20031;-70
2022/11/27 07:32:40;;;;;;;13.93;5.85;;;7.20;99.90;;;;;;5148133;27;20079;-69
2022/11/27 07:35:06;;;;;;;16.15;6.55;;;7.20;99.90;;;;;;5147486;27;20035;-69
2022/11/27 07:37:32;;;;;;;14.45;6.15;;;7.20;99.90;;;;;;5150646;27;20035;-69
2022/11/27 07:39:58;;;;;;;17.50;6.35;;;7.20;99.90;;;;;;5147914;27;20042;-70
2022/11/27 07:42:24;;;;;;;16.10;6.45;;;7.20;99.90;;;;;;5148551;27;20449;-69
2022/11/27 07:44:49;;;;;;;17.92;6.78;;;7.20;99.90;;;;;;5128427;27;20031;-69
2022/11/27 07:47:15;;;;;;;15.32;6.43;;;7.30;99.90;;;;;;5147895;27;20051;-70
2022/11/27 07:49:41;;;;;;;12.77;6.30;;;7.20;99.90;;;;;;5148220;27;20038;-69
2022/11/27 07:52:06;;;;;;;12.27;5.55;;;7.10;99.90;;;;;;5146648;27;20039;-69
2022/11/27 07:54:33;;;;;;;9.93;5.80;;;7.00;99.90;;;;;;5143957;27;20038;-69
2022/11/27 07:56:59;;;;;;;11.15;6.38;;;7.10;99.90;;;;;;5143503;27;20071;-69
2022/11/27 07:59:25;;;;;;;13.35;6.28;;;7.10;99.90;;;;;;5147312;27;20069;-69
2022/11/27 08:01:50;;;;;;;11.30;6.00;;;7.10;99.90;;;;;;5119565;27;20039;-69
2022/11/27 08:04:16;;;;;;;10.73;6.15;;;7.00;99.90;;;;;;5137876;27;20491;-70
2022/11/27 08:06:42;;;;;;;13.00;6.60;;;7.20;99.90;;;;;;5119853;27;20114;-69
2022/11/27 08:09:07;;;;;;;14.52;6.45;;;7.30;99.90;;;;;;5137783;27;20031;-69
2022/11/27 08:11:34;;;;;;;14.95;6.28;;;7.30;99.90;;;;;;5137265;27;20035;-69
2022/11/27 08:14:04;;;;;;;15.77;6.50;;;7.30;99.90;;;;;;5119681;27;20042;-69
2022/11/27 08:16:31;;;;;;;13.68;6.18;;;7.30;99.90;;;;;;5137689;27;20038;-69
2022/11/27 08:18:57;;;;;;;14.10;6.35;;;7.30;99.90;;;;;;5137567;27;20054;-69
2022/11/27 08:21:23;;;;;;;14.27;6.68;;;7.30;99.90;;;;;;5119687;27;20039;-69
2022/11/27 08:23:49;;;;;;;13.18;6.43;;;7.40;99.90;;;;;;5137624;27;20043;-69
2022/11/27 08:26:16;;;;;;;13.65;6.80;;;7.50;99.90;;;;;;5137729;27;20039;-69
2022/11/27 08:28:42;;;;;;;15.80;7.35;;;7.60;99.90;;;;;;5137441;27;20067;-69
2022/11/27 08:31:10;;;;;;;13.27;6.47;;;7.60;99.90;;;;;;5137389;28;20127;-70
2022/11/27 08:33:36;;;;;;;16.15;6.70;;;7.50;99.90;;;;;;5137564;28;20053;-69
2022/11/27 08:36:02;;;;;;;18.38;6.68;;;7.60;99.90;;;;;;5137546;28;20043;-69
2022/11/27 08:38:28;;;;;;;18.70;6.68;;;7.70;99.90;;;;;;5119368;28;20053;-69
2022/11/27 08:40:55;;;;;;;19.48;7.10;;;7.80;99.90;;;;;;5136734;28;20046;-69
2022/11/27 08:43:21;;;;;;;24.38;7.47;;;7.70;99.90;;;;;;5119113;28;20039;-69
2022/11/27 08:45:47;;;;;;;18.02;6.85;;;7.60;99.90;;;;;;5137087;28;20051;-69
2022/11/27 08:48:13;;;;;;;16.60;7.28;;;7.40;99.90;;;;;;5119412;28;20108;-69
2022/11/27 08:50:39;;;;;;;14.60;6.53;;;7.40;99.90;;;;;;5137399;28;20032;-69
2022/11/27 08:53:04;;;;;;;12.63;6.82;;;7.40;99.90;;;;;;5137536;28;20419;-69
2022/11/27 08:55:30;;;;;;;14.52;6.88;;;7.40;99.90;;;;;;5137240;28;20121;-69
2022/11/27 08:57:56;;;;;;;18.13;7.20;;;7.50;99.90;;;;;;5137411;28;20039;-69
2022/11/27 09:00:21;;;;;;;14.18;7.20;;;7.60;99.90;;;;;;5137131;28;20039;-69
2022/11/27 09:02:47;;;;;;;15.98;7.30;;;7.60;99.90;;;;;;5137277;28;20035;-69
2022/11/27 09:05:13;;;;;;;13.00;6.82;;;7.60;99.90;;;;;;5137312;28;20039;-69
2022/11/27 09:07:39;;;;;;;14.23;6.75;;;7.50;99.90;;;;;;5119085;27;20462;-69
2022/11/27 09:10:06;;;;;;;15.75;7.18;;;7.50;99.90;;;;;;5139857;27;20035;-69
2022/11/27 09:12:32;;;;;;;15.88;7.30;;;7.60;99.90;;;;;;5122644;27;20438;-70
2022/11/27 09:14:58;;;;;;;16.30;7.28;;;7.70;99.90;;;;;;5105812;27;20079;-69
2022/11/27 09:17:23;;;;;;;15.07;6.80;;;7.70;99.90;;;;;;5141058;27;20083;-67
2022/11/27 09:19:49;;;;;;;15.13;7.60;;;7.80;99.90;;;;;;5141118;27;20039;-67
2022/11/27 09:22:15;;;;;;;14.18;6.97;;;7.70;99.90;;;;;;5140922;27;20039;-67
2022/11/27 09:24:40;;;;;;;18.23;7.57;;;7.60;99.90;;;;;;5140788;27;20039;-67
2022/11/27 09:27:06;;;;;;;15.10;7.40;;;7.70;99.90;;;;;;5140786;27;20076;-67
2022/11/27 09:29:33;;;;;;;16.02;7.85;;;7.70;99.90;;;;;;5122672;27;20423;-67
2022/11/27 09:31:59;;;;;;;15.32;7.70;;;7.70;99.90;;;;;;5140728;27;20051;-67
2022/11/27 09:34:25;;;;;;;16.02;8.10;;;7.80;99.90;;;;;;5140696;27;20043;-67
2022/11/27 09:36:51;;;;;;;16.90;8.88;;;7.70;99.90;;;;;;5140760;27;20039;-67
2022/11/27 09:39:18;;;;;;;13.60;8.50;;;7.60;99.90;;;;;;5140533;27;20387;-67
2022/11/27 09:41:57;;;;;;;14.45;7.55;;;7.60;99.90;;;;;;5140126;27;20378;-67
2022/11/27 09:44:22;;;;;;;14.18;7.30;;;7.50;99.90;;;;;;5140445;27;20420;-66
2022/11/27 09:46:49;;;;;;;20.00;8.32;;;7.60;99.90;;;;;;5140427;27;20099;-65
2022/11/27 09:49:38;;;;;;;16.08;8.18;;;7.60;99.90;;;;;;5140330;27;20336;-66
2022/11/27 09:52:06;;;;;;;17.77;9.30;;;7.70;99.90;;;;;;5139681;27;20079;-66
2022/11/27 09:55:01;;;;;;;16.75;8.02;;;7.80;99.90;;;;;;5140134;27;20047;-66
2022/11/27 09:57:37;;;;;;;16.23;8.55;;;7.80;99.90;;;;;;5122291;27;20114;-66
2022/11/27 10:00:13;;;;;;;16.80;7.90;;;7.90;99.90;;;;;;5140418;27;20081;-66
2022/11/27 10:02:41;;;;;;;19.88;8.60;;;7.70;99.90;;;;;;5121884;27;20473;-66
2022/11/27 10:05:21;;;;;;;13.77;7.90;;;7.80;99.90;;;;;;5140065;27;20440;-66
2022/11/27 10:08:09;;;;;;;19.13;8.57;;;7.90;99.90;;;;;;5140166;27;20096;-67
2022/11/27 10:11:16;;;;;;;17.77;9.40;;;7.70;99.90;;;;;;5122211;27;20050;-68
2022/11/27 10:14:01;;;;;;;11.48;7.85;;;7.70;99.90;;;;;;5114294;27;20039;-65
2022/11/27 10:16:42;;;;;;;19.20;8.98;;;7.60;99.90;;;;;;5126741;27;20122;-68
2022/11/27 10:19:48;;;;;;;18.25;9.32;;;7.60;99.90;;;;;;5120309;27;20116;-66
2022/11/27 10:22:52;;;;;;;15.80;8.88;;;7.70;99.90;;;;;;5104308;27;20071;-66
2022/11/27 10:25:23;;;;;;;22.55;9.20;;;7.70;99.90;;;;;;5139417;27;20050;-66
2022/11/27 10:27:51;;;;;;;16.90;8.82;;;7.70;99.90;;;;;;5121300;27;20039;-68
2022/11/27 10:30:20;;;;;;;19.13;9.02;;;7.60;99.90;;;;;;5120260;27;20066;-66
2022/11/27 10:32:51;;;;;;;20.92;9.50;;;7.60;99.90;;;;;;5125529;27;20056;-66
2022/11/27 10:35:27;;;;;;;17.80;9.55;;;7.70;99.90;;;;;;5126849;27;20127;-70
2022/11/27 10:38:02;;;;;;;18.83;9.45;;;7.80;99.90;;;;;;5130388;27;20110;-69
2022/11/27 10:40:38;;;;;;;21.00;10.02;;;7.80;99.90;;;;;;5083428;28;20135;-67
2022/11/27 10:43:17;;;;;;;15.70;9.15;;;7.70;99.90;;;;;;5130950;27;20115;-66
2022/11/27 10:46:02;;;;;;;18.92;8.85;;;7.70;99.90;;;;;;5138250;27;20434;-66
2022/11/27 10:48:28;;;;;;;21.98;9.27;;;7.70;99.90;;;;;;5120797;27;20075;-67
2022/11/27 10:50:54;;;;;;;21.02;9.60;;;7.70;99.90;;;;;;5138923;27;20073;-72
2022/11/27 10:53:34;;;;;;;18.33;9.13;;;7.70;99.90;;;;;;5138807;27;20037;-67
2022/11/27 10:56:06;;;;;;;20.50;9.50;;;7.70;99.90;;;;;;5119312;27;20046;-67
2022/11/27 10:58:53;;;;;;;19.88;9.73;;;7.70;99.90;;;;;;5118328;28;20044;-69
2022/11/27 11:01:20;;;;;;;20.30;9.73;;;7.60;99.90;;;;;;5118275;28;20126;-68
2022/11/27 11:03:46;;;;;;;20.48;9.68;;;7.50;99.90;;;;;;5114227;27;20078;-68
2022/11/27 11:06:21;;;;;;;22.65;10.20;;;7.50;99.90;;;;;;5138435;27;20043;-68
2022/11/27 11:09:00;;;;;;;15.57;9.30;;;7.60;99.90;;;;;;5121212;27;20114;-69
2022/11/27 11:11:26;;;;;;;16.27;9.52;;;7.70;99.90;;;;;;5138199;27;20039;-69
2022/11/27 11:13:52;;;;;;;19.25;9.68;;;7.60;99.90;;;;;;5138377;27;20043;-67
2022/11/27 11:16:22;;;;;;;23.15;9.48;;;7.60;99.90;;;;;;5120663;27;20116;-68
2022/11/27 11:18:49;;;;;;;20.42;10.63;;;7.60;99.90;;;;;;5138582;27;20118;-68
2022/11/27 11:21:28;;;;;;;18.05;10.40;;;7.60;99.90;;;;;;5138814;27;20040;-68
2022/11/27 11:24:02;;;;;;;20.55;10.00;;;7.60;99.90;;;;;;5138421;27;20046;-68
2022/11/27 11:26:48;;;;;;;16.27;9.82;;;7.70;99.90;;;;;;5120505;27;20126;-68
2022/11/27 11:29:34;;;;;;;18.80;10.32;;;7.80;99.90;;;;;;5138763;27;20039;-68
2022/11/27 11:32:09;;;;;;;21.17;9.48;;;7.70;99.90;;;;;;5137337;27;20069;-69
2022/11/27 11:34:41;;;;;;;16.07;9.33;;;7.80;99.90;;;;;;5138698;27;20039;-68
2022/11/27 11:37:25;;;;;;;19.80;9.63;;;7.80;99.90;;;;;;5138349;27;20043;-68
2022/11/27 11:39:56;;;;;;;19.02;10.07;;;7.60;99.90;;;;;;5138260;27;20039;-68
2022/11/27 11:42:31;;;;;;;21.83;9.20;;;7.50;99.90;;;;;;5138000;27;20051;-68
2022/11/27 11:45:15;;;;;;;13.45;9.05;;;7.40;99.90;;;;;;5138060;27;20047;-68
2022/11/27 11:47:49;;;;;;;21.88;10.52;;;7.30;99.90;;;;;;5119953;27;20045;-68
2022/11/27 11:50:37;;;;;;;17.73;10.10;;;7.50;99.90;;;;;;5138324;27;20110;-68
2022/11/27 11:53:26;;;;;;;23.75;9.52;;;7.50;99.90;;;;;;5137892;27;20035;-68
2022/11/27 11:56:10;;;;;;;20.35;9.77;;;7.60;99.90;;;;;;5119875;27;20419;-68
2022/11/27 11:58:57;;;;;;;18.23;9.63;;;7.70;99.90;;;;;;5119710;27;20122;-68
2022/11/27 12:01:36;;;;;;;18.10;9.95;;;7.70;99.90;;;;;;5138089;27;20039;-68
2022/11/27 12:04:14;;;;;;;19.65;9.82;;;7.60;99.90;;;;;;5137920;27;20043;-68
2022/11/27 12:07:11;;;;;;;20.30;9.52;;;7.60;99.90;;;;;;5137742;27;20065;-68
2022/11/27 12:10:18;;;;;;;16.88;9.30;;;7.60;99.90;;;;;;5137964;27;20050;-68
2022/11/27 12:12:51;;;;;;;19.35;9.98;;;7.70;99.90;;;;;;5115335;27;20051;-68
2022/11/27 12:15:26;;;;;;;19.25;10.18;;;7.50;99.90;;;;;;5137736;27;20047;-68
2022/11/27 12:18:01;;;;;;;19.73;9.77;;;7.70;99.90;;;;;;5137848;27;20054;-68
2022/11/27 12:20:35;;;;;;;16.85;9.07;;;7.50;99.90;;;;;;5119168;27;20116;-68
2022/11/27 12:23:27;;;;;;;14.38;8.52;;;7.60;99.90;;;;;;5119380;27;20130;-68
2022/11/27 12:26:05;;;;;;;18.65;8.82;;;7.70;99.90;;;;;;5137727;27;20043;-68
2022/11/27 12:29:05;;;;;;;15.00;9.02;;;7.70;99.90;;;;;;5119250;27;20492;-68
2022/11/27 12:31:46;;;;;;;15.20;9.10;;;7.60;99.90;;;;;;5137570;28;20049;-68
2022/11/27 12:34:50;;;;;;;18.88;9.30;;;7.70;99.90;;;;;;5119602;28;20043;-68
2022/11/27 12:37:34;;;;;;;19.60;10.27;;;7.80;99.90;;;;;;5137528;28;20054;-68
2022/11/27 12:40:24;;;;;;;15.95;9.43;;;7.80;99.90;;;;;;5137529;28;20047;-68
2022/11/27 12:43:06;;;;;;;20.13;9.30;;;7.80;99.90;;;;;;5137618;27;20050;-68
2022/11/27 12:45:40;;;;;;;18.60;10.02;;;7.70;99.90;;;;;;5141623;27;20043;-68
2022/11/27 12:48:11;;;;;;;21.00;10.20;;;7.70;99.90;;;;;;5123377;27;20168;-68
2022/11/27 12:50:49;;;;;;;22.63;10.52;;;7.80;99.90;;;;;;5106540;27;20439;-68
2022/11/27 12:53:36;;;;;;;19.00;9.18;;;7.80;99.90;;;;;;5141659;27;20046;-68
2022/11/27 12:56:27;;;;;;;18.75;9.40;;;7.60;99.90;;;;;;5141501;27;20039;-68
2022/11/27 12:59:32;;;;;;;15.55;8.65;;;7.70;99.90;;;;;;5123627;27;20043;-68
2022/11/27 13:02:23;;;;;;;18.55;9.20;;;7.60;99.90;;;;;;5128396;27;20062;-68
2022/11/27 13:04:55;;;;;;;23.58;9.35;;;7.80;99.90;;;;;;5141361;27;20047;-68
2022/11/27 13:07:37;;;;;;;17.80;9.20;;;7.70;99.90;;;;;;5141202;27;20035;-68